createdAt,value
2023-03-15T00:01:49.269Z,2.60
2023-03-15T00:06:57.144Z,2.60
2023-03-15T00:12:04.379Z,2.00
2023-03-15T00:17:14.881Z,2.90
2023-03-15T00:22:23.443Z,3.00
2023-03-15T00:27:30.697Z,3.30
2023-03-15T00:32:38.414Z,3.80
2023-03-15T00:37:45.584Z,2.70
2023-03-15T00:42:53.155Z,2.80
2023-03-15T00:48:00.346Z,3.70
2023-03-15T00:53:07.515Z,4.10
2023-03-15T00:58:14.624Z,3.80
2023-03-15T01:03:21.968Z,4.70
2023-03-15T01:08:29.156Z,3.90
2023-03-15T01:13:37.295Z,4.50
2023-03-15T01:18:44.851Z,5.00
2023-03-15T01:23:52.072Z,4.80
2023-03-15T01:29:01.921Z,4.10
2023-03-15T01:39:16.104Z,4.50
2023-03-15T01:44:25.590Z,5.00
2023-03-15T01:49:35.068Z,4.70
2023-03-15T01:54:48.374Z,4.10
2023-03-15T02:00:02.283Z,5.00
2023-03-15T02:05:23.712Z,4.70
2023-03-15T02:10:35.397Z,4.20
2023-03-15T02:15:48.869Z,4.60
2023-03-15T02:21:16.134Z,5.00
2023-03-15T02:26:30.106Z,5.30
2023-03-15T02:31:39.101Z,4.40
2023-03-15T02:36:46.468Z,5.10
2023-03-15T02:41:57.806Z,4.60
2023-03-15T02:47:11.586Z,4.50
2023-03-15T02:52:19.319Z,5.80
2023-03-15T02:57:26.567Z,6.00
2023-03-15T03:02:35.456Z,4.80
2023-03-15T03:07:43.177Z,4.90
2023-03-15T03:12:53.625Z,4.20
2023-03-15T03:18:06.099Z,5.00
2023-03-15T03:23:14.053Z,4.10
2023-03-15T03:28:24.333Z,4.50
2023-03-15T03:33:32.077Z,3.70
2023-03-15T03:38:39.320Z,3.30
2023-03-15T03:43:46.762Z,4.00
2023-03-15T03:48:54.101Z,4.10
2023-03-15T03:54:02.837Z,3.60
2023-03-15T03:59:10.897Z,3.30
2023-03-15T04:04:27.633Z,3.40
2023-03-15T04:09:37.687Z,3.80
2023-03-15T04:14:46.378Z,4.40
2023-03-15T04:25:07.573Z,4.40
2023-03-15T04:30:37.611Z,4.50
2023-03-15T04:36:19.097Z,3.80
2023-03-15T04:41:45.625Z,4.30
2023-03-15T04:47:11.442Z,4.70
2023-03-15T04:52:37.410Z,4.60
2023-03-15T04:57:44.631Z,5.40
2023-03-15T05:03:10.522Z,3.60
2023-03-15T05:08:30.486Z,3.60
2023-03-15T05:13:46.480Z,4.00
2023-03-15T05:19:12.568Z,4.00
2023-03-15T05:24:39.870Z,4.00
2023-03-15T05:29:54.563Z,4.50
2023-03-15T05:35:22.482Z,3.90
2023-03-15T05:40:46.683Z,4.10
2023-03-15T05:46:12.415Z,4.90
2023-03-15T05:51:40.306Z,4.20
2023-03-15T05:56:58.056Z,4.80
2023-03-15T06:02:16.106Z,5.30
2023-03-15T06:07:29.838Z,5.20
2023-03-15T06:12:38.170Z,5.70
2023-03-15T06:17:45.725Z,4.70
2023-03-15T06:22:52.939Z,5.00
2023-03-15T06:28:16.065Z,4.70
2023-03-15T06:33:28.930Z,5.00
2023-03-15T06:38:36.631Z,6.40
2023-03-15T06:43:44.365Z,6.00
2023-03-15T06:48:53.229Z,4.60
2023-03-15T06:59:08.108Z,4.40
2023-03-15T07:09:21.453Z,4.40
2023-03-15T07:14:28.755Z,5.20
2023-03-15T07:19:39.283Z,5.50
2023-03-15T07:24:48.656Z,5.40
2023-03-15T07:29:55.895Z,4.80
2023-03-15T07:35:03.108Z,5.30
2023-03-15T07:40:16.222Z,6.80
2023-03-15T07:45:23.750Z,4.50
2023-03-15T07:50:31.100Z,6.10
2023-03-15T07:55:38.922Z,7.10
2023-03-15T08:00:46.810Z,7.10
2023-03-15T08:05:55.880Z,6.10
2023-03-15T08:11:05.944Z,7.10
2023-03-15T08:16:13.587Z,7.20
2023-03-15T08:21:23.763Z,5.60
2023-03-15T08:26:31.950Z,5.80
2023-03-15T08:31:40.247Z,5.40
2023-03-15T08:36:50.082Z,6.00
2023-03-15T08:41:57.756Z,6.20
2023-03-15T08:47:05.435Z,5.80
2023-03-15T08:52:13.368Z,4.90
2023-03-15T09:02:26.607Z,5.40
2023-03-15T09:07:34.393Z,6.10
2023-03-15T09:12:46.403Z,5.20
2023-03-15T09:17:54.707Z,23.60
2023-03-15T09:23:06.229Z,4.90
2023-03-15T09:28:15.879Z,4.10
2023-03-15T09:33:34.231Z,4.80
2023-03-15T09:38:48.217Z,3.80
2023-03-15T09:44:17.702Z,3.80
2023-03-15T09:49:40.881Z,3.40
2023-03-15T09:54:53.171Z,3.50
2023-03-15T10:00:07.272Z,6.20
2023-03-15T10:05:22.051Z,4.70
2023-03-15T10:10:34.709Z,3.80
2023-03-15T10:15:53.419Z,3.40
2023-03-15T10:21:07.749Z,4.00
2023-03-15T10:26:20.565Z,3.90
2023-03-15T10:31:44.126Z,4.70
2023-03-15T10:36:55.634Z,4.40
2023-03-15T10:42:04.667Z,3.90
2023-03-15T10:47:24.135Z,4.30
2023-03-15T10:52:37.159Z,3.60
2023-03-15T10:57:58.285Z,3.10
2023-03-15T11:03:08.536Z,3.70
2023-03-15T11:08:19.330Z,3.50
2023-03-15T11:13:29.630Z,3.40
2023-03-15T11:18:45.936Z,3.60
2023-03-15T11:24:03.584Z,3.10
2023-03-15T11:29:28.302Z,3.40
2023-03-15T11:34:43.733Z,4.00
2023-03-15T11:40:12.165Z,4.20
2023-03-15T11:45:31.116Z,3.70
2023-03-15T11:51:00.789Z,4.20
2023-03-15T11:56:24.205Z,4.70
2023-03-15T12:01:31.725Z,5.20
2023-03-15T12:06:41.512Z,3.70
2023-03-15T12:11:48.657Z,3.70
2023-03-15T12:17:16.173Z,2.90
2023-03-15T12:22:23.504Z,4.30
2023-03-15T12:27:31.467Z,3.60
2023-03-15T12:37:54.511Z,3.90
2023-03-15T12:43:05.061Z,4.50
2023-03-15T12:48:32.163Z,4.10
2023-03-15T12:53:53.941Z,4.30
2023-03-15T12:59:05.567Z,3.50
2023-03-15T13:04:14.389Z,3.70
2023-03-15T13:09:37.723Z,3.50
2023-03-15T13:14:51.453Z,3.20
2023-03-15T13:20:17.878Z,3.40
2023-03-15T13:25:34.422Z,3.30
2023-03-15T13:30:44.280Z,4.20
2023-03-15T13:35:58.142Z,3.90
2023-03-15T13:41:07.993Z,2.90
2023-03-15T13:46:15.598Z,2.50
2023-03-15T13:51:26.132Z,2.30
2023-03-15T13:56:48.754Z,2.30
2023-03-15T14:01:58.152Z,3.00
2023-03-15T14:07:25.401Z,3.70
2023-03-15T14:12:33.266Z,2.70
2023-03-15T14:17:52.682Z,2.50
2023-03-15T14:23:03.872Z,4.10
2023-03-15T14:28:17.080Z,3.70
2023-03-15T14:33:34.905Z,2.60
2023-03-15T14:38:51.535Z,3.90
2023-03-15T14:44:03.191Z,3.80
2023-03-15T14:49:26.803Z,2.90
2023-03-15T14:54:35.165Z,2.30
2023-03-15T14:59:42.381Z,2.10
2023-03-15T15:04:49.913Z,2.40
2023-03-15T15:09:57.409Z,2.30
2023-03-15T15:15:11.223Z,3.00
2023-03-15T15:20:19.560Z,2.00
2023-03-15T15:25:28.604Z,2.90
2023-03-15T15:30:36.206Z,2.50
2023-03-15T15:35:44.725Z,3.10
2023-03-15T15:40:51.985Z,2.70
2023-03-15T15:45:59.404Z,3.30
2023-03-15T15:51:20.725Z,3.00
2023-03-15T15:56:33.854Z,2.00
2023-03-15T16:01:56.520Z,3.50
2023-03-15T16:07:08.248Z,1.90
2023-03-15T16:12:17.814Z,2.50
2023-03-15T16:17:25.938Z,2.50
2023-03-15T16:22:33.352Z,3.30
2023-03-15T16:27:40.890Z,2.90
2023-03-15T16:32:48.284Z,3.10
2023-03-15T16:37:58.482Z,4.30
2023-03-15T16:43:08.845Z,3.10
2023-03-15T16:48:16.083Z,3.40
2023-03-15T16:53:25.496Z,4.10
2023-03-15T16:58:32.998Z,3.90
2023-03-15T17:03:40.212Z,4.60
2023-03-15T17:08:47.591Z,5.70
2023-03-15T17:13:54.918Z,8.90
2023-03-15T17:19:02.848Z,8.40
2023-03-15T17:24:14.923Z,7.50
2023-03-15T17:29:22.110Z,4.90
2023-03-15T17:34:29.251Z,3.80
2023-03-15T17:39:36.737Z,5.50
2023-03-15T17:44:43.967Z,5.10
2023-03-15T17:49:51.553Z,5.20
2023-03-15T17:54:58.802Z,4.40
2023-03-15T18:00:06.738Z,4.70
2023-03-15T18:05:20.896Z,5.20
2023-03-15T18:10:31.530Z,5.00
2023-03-15T18:15:38.945Z,6.20
2023-03-15T18:20:46.487Z,8.50
2023-03-15T18:25:53.645Z,4.80
2023-03-15T18:31:00.890Z,15.60
2023-03-15T18:36:09.042Z,7.00
2023-03-15T18:41:20.722Z,8.80
2023-03-15T18:46:28.828Z,5.90
2023-03-15T18:56:43.364Z,10.50
2023-03-15T19:01:50.910Z,16.00
2023-03-15T19:07:11.759Z,12.80
2023-03-15T19:12:27.028Z,14.20
2023-03-15T19:17:34.721Z,10.50
2023-03-15T19:22:42.881Z,7.40
2023-03-15T19:27:50.500Z,9.10
2023-03-15T19:32:58.454Z,10.40
2023-03-15T19:38:05.776Z,11.80
2023-03-15T19:43:15.183Z,8.60
2023-03-15T19:48:22.517Z,10.70
2023-03-15T19:53:39.068Z,12.70
2023-03-15T19:59:18.385Z,11.00
2023-03-15T20:04:25.898Z,10.40
2023-03-15T20:09:38.210Z,14.50
2023-03-15T20:14:45.717Z,12.20
2023-03-15T20:19:52.996Z,12.10
2023-03-15T20:25:00.309Z,13.60
2023-03-15T20:30:12.720Z,11.80
2023-03-15T20:35:22.793Z,12.80
2023-03-15T20:40:30.365Z,12.90
2023-03-15T20:45:37.716Z,14.00
2023-03-15T20:50:44.952Z,23.80
2023-03-15T20:55:52.048Z,30.40
2023-03-15T21:01:06.636Z,25.70
2023-03-15T21:06:14.262Z,17.60
2023-03-15T21:11:21.331Z,18.00
2023-03-15T21:16:28.761Z,17.50
2023-03-15T21:21:36.128Z,16.20
2023-03-15T21:26:47.041Z,16.30
2023-03-15T21:31:54.240Z,16.20
2023-03-15T21:37:01.519Z,15.50
2023-03-15T21:42:09.859Z,17.40
2023-03-15T21:47:18.049Z,26.60
2023-03-15T21:52:26.409Z,21.50
2023-03-15T21:57:34.906Z,23.10
2023-03-15T22:02:42.296Z,20.80
2023-03-15T22:07:49.801Z,21.30
2023-03-15T22:12:57.017Z,20.60
2023-03-15T22:18:04.245Z,23.70
2023-03-15T22:23:11.907Z,23.20
2023-03-15T22:28:19.053Z,23.80
2023-03-15T22:33:26.175Z,22.60
2023-03-15T22:38:37.897Z,23.10
2023-03-15T22:43:45.655Z,24.10
2023-03-15T22:48:52.808Z,22.80
2023-03-15T22:54:00.001Z,25.70
2023-03-15T22:59:07.234Z,27.20
2023-03-15T23:04:14.846Z,29.20
2023-03-15T23:09:22.714Z,26.80
2023-03-15T23:14:29.829Z,26.10
2023-03-15T23:19:36.952Z,28.30
2023-03-15T23:24:46.305Z,28.00
2023-03-15T23:29:55.136Z,27.50
2023-03-15T23:35:03.285Z,29.70
2023-03-15T23:45:23.561Z,28.90
2023-03-15T23:50:31.365Z,28.20
